Hlavní strana
METAR-TAF:

METAR-TAF

Letiště :

Vídeňské Nové Město, Rakousko

zeměpisná šířka: 47-50-36N, zeměpisná délka: 016-15-29E, výška: 272 m

Aktuální stav počasí

Zpráva byla vytvořena před 55 minutami, v 15:00 UTC
Jižní vítr 10 kt
Teplota
Tlak
Viditelnost 10 km a více
Skoro jasno ve výšce 6000 ft

METAR: LOAN 271500Z 17010KT 9999 FEW060

Čas: 17:55 (15:55 UTC)

Předpověď počasí

Zpráva byla vytvořena před 4 hodinami a 40 minutami, v 11:15 UTC
Předpověď platná od 27 v 12 UTC do 27 v 21 UTC
Jihojihovýchodní vítr 10 kt
Viditelnost 10 km a více
Skoro jasno ve výšce 4000 ft
Dočasný
od 27 v 12 UTC do 27 v 16 UTC
Skoro jasno ve výšce 5000 ft, Cumulonimbus.
Změna
od 27 v 17 UTC do 27 v 19 UTC
Jihojihovýchodní vítr 4 kt

TAF: LOAN 271115Z 2712/2721 16010KT 9999 FEW040 TEMPO 2712/2716 FEW050CB BECMG 2717/2719 16004KT

Stav a předpovědi počasí z více než 4 000 letišť (zprávy METAR a TAF).

Červené a žluté tečky na mapě představují dostupné meteorologické stanice.

Když kurzor umístíte na tečku, zobrazí se název stanice.

Pak kliknutím zobrazíte stav a předpověď počasí.

Chcete-li změnit mapu, kliknutím na zelené tlačítko se znaménkem +mapu přiblížíte, kliknutím na zelené tlačítko se znaménkem – mapu oddálíte a kliknutím na zelené šipky přejdete na sousední mapy.


METAR-TAF: